createdAt,value
2023-03-17T00:01:23.519Z,5.00
2023-03-17T00:03:50.465Z,3.97
2023-03-17T00:06:24.507Z,4.07
2023-03-17T00:08:51.314Z,3.70
2023-03-17T00:11:18.641Z,4.13
2023-03-17T00:13:46.231Z,4.15
2023-03-17T00:16:25.612Z,6.97
2023-03-17T00:18:53.856Z,4.20
2023-03-17T00:21:32.177Z,5.22
2023-03-17T00:24:00.027Z,3.78
2023-03-17T00:26:27.751Z,6.18
2023-03-17T00:28:55.041Z,4.28
2023-03-17T00:31:28.764Z,3.35
2023-03-17T00:33:58.356Z,5.25
2023-03-17T00:36:29.394Z,6.93
2023-03-17T00:38:57.178Z,5.82
2023-03-17T00:41:25.613Z,7.65
2023-03-17T00:43:52.467Z,7.43
2023-03-17T00:46:28.821Z,4.38
2023-03-17T00:48:57.804Z,6.05
2023-03-17T00:51:24.461Z,4.32
2023-03-17T00:53:51.725Z,4.68
2023-03-17T00:56:21.223Z,5.93
2023-03-17T00:58:48.874Z,4.20
2023-03-17T01:01:15.922Z,4.65
2023-03-17T01:03:42.708Z,5.50
2023-03-17T01:06:12.651Z,5.50
2023-03-17T01:08:40.605Z,6.95
2023-03-17T01:11:14.860Z,4.97
2023-03-17T01:13:41.663Z,5.50
2023-03-17T01:16:11.354Z,5.00
2023-03-17T01:18:38.481Z,6.47
2023-03-17T01:21:05.383Z,5.25
2023-03-17T01:23:32.623Z,4.93
2023-03-17T01:25:59.320Z,6.45
2023-03-17T01:28:26.063Z,4.82
2023-03-17T01:30:52.721Z,7.22
2023-03-17T01:33:19.398Z,5.28
2023-03-17T01:35:46.181Z,4.07
2023-03-17T01:38:15.072Z,7.30
2023-03-17T01:40:50.745Z,5.35
2023-03-17T01:43:22.629Z,4.55
2023-03-17T01:46:14.714Z,6.40
2023-03-17T01:48:43.154Z,5.33
2023-03-17T01:51:14.880Z,5.07
2023-03-17T01:53:43.308Z,4.83
2023-03-17T01:56:11.860Z,8.35
2023-03-17T01:58:40.114Z,5.38
2023-03-17T02:01:07.842Z,6.80
2023-03-17T02:03:34.727Z,4.97
2023-03-17T02:06:02.301Z,6.13
2023-03-17T02:08:29.245Z,5.15
2023-03-17T02:10:57.192Z,5.00
2023-03-17T02:13:24.301Z,6.53
2023-03-17T02:15:54.442Z,7.20
2023-03-17T02:18:23.545Z,8.27
2023-03-17T02:20:50.247Z,5.88
2023-03-17T02:23:23.037Z,6.20
2023-03-17T02:25:51.737Z,7.13
2023-03-17T02:28:27.769Z,5.03
2023-03-17T02:30:54.555Z,6.15
2023-03-17T02:33:21.382Z,4.97
2023-03-17T02:35:48.181Z,3.95
2023-03-17T02:38:17.304Z,6.25
2023-03-17T02:40:44.046Z,5.28
2023-03-17T02:43:10.926Z,5.15
2023-03-17T02:45:37.628Z,6.30
2023-03-17T02:48:05.915Z,5.50
2023-03-17T02:50:32.761Z,7.15
2023-03-17T02:52:59.476Z,5.38
2023-03-17T02:55:27.111Z,6.65
2023-03-17T02:57:53.796Z,5.65
2023-03-17T03:00:21.544Z,5.63
2023-03-17T03:02:48.376Z,6.68
2023-03-17T03:05:15.104Z,5.80
2023-03-17T03:07:42.314Z,5.22
2023-03-17T03:10:09.901Z,5.43
2023-03-17T03:12:36.670Z,5.45
2023-03-17T03:15:03.448Z,5.80
2023-03-17T03:17:30.156Z,7.20
2023-03-17T03:19:56.893Z,5.88
2023-03-17T03:22:23.564Z,4.97
2023-03-17T03:24:50.300Z,6.32
2023-03-17T03:27:17.059Z,6.82
2023-03-17T03:29:43.873Z,5.38
2023-03-17T03:32:11.122Z,5.00
2023-03-17T03:34:37.840Z,5.38
2023-03-17T03:37:05.908Z,5.85
2023-03-17T03:39:32.652Z,6.57
2023-03-17T03:41:59.435Z,4.38
2023-03-17T03:44:26.166Z,4.65
2023-03-17T03:46:52.890Z,6.63
2023-03-17T03:49:19.770Z,5.90
2023-03-17T03:51:46.457Z,5.15
2023-03-17T03:54:13.372Z,5.72
2023-03-17T03:56:40.070Z,5.93
2023-03-17T03:59:07.321Z,3.67
2023-03-17T04:01:34.027Z,6.32
2023-03-17T04:04:01.327Z,6.47
2023-03-17T04:06:28.100Z,5.43
2023-03-17T04:08:57.070Z,7.32
2023-03-17T04:11:24.921Z,7.53
2023-03-17T04:13:51.944Z,5.68
2023-03-17T04:16:18.683Z,6.03
2023-03-17T04:18:45.842Z,5.43
2023-03-17T04:21:13.524Z,5.53
2023-03-17T04:23:40.490Z,6.07
2023-03-17T04:26:07.332Z,7.25
2023-03-17T04:28:34.150Z,5.00
2023-03-17T04:31:01.443Z,7.38
2023-03-17T04:33:28.707Z,5.03
2023-03-17T04:35:55.891Z,6.72
2023-03-17T04:38:22.681Z,6.55
2023-03-17T04:40:51.007Z,7.38
2023-03-17T04:43:18.065Z,5.07
2023-03-17T04:45:44.893Z,4.38
2023-03-17T04:48:11.610Z,4.55
2023-03-17T04:50:39.064Z,5.35
2023-03-17T04:53:06.679Z,7.75
2023-03-17T04:55:33.468Z,4.10
2023-03-17T04:58:00.323Z,5.72
2023-03-17T05:00:27.902Z,5.47
2023-03-17T05:02:54.783Z,6.82
2023-03-17T05:05:21.647Z,7.05
2023-03-17T05:07:48.404Z,5.22
2023-03-17T05:10:15.248Z,3.80
2023-03-17T05:12:41.974Z,5.30
2023-03-17T05:15:09.999Z,5.32
2023-03-17T05:17:36.903Z,4.53
2023-03-17T05:20:04.280Z,5.28
2023-03-17T05:22:31.164Z,5.15
2023-03-17T05:25:22.509Z,6.97
2023-03-17T05:27:49.279Z,6.60
2023-03-17T05:30:16.936Z,3.40
2023-03-17T05:32:43.717Z,5.78
2023-03-17T05:35:10.580Z,4.07
2023-03-17T05:37:37.232Z,4.07
2023-03-17T05:40:04.409Z,5.47
2023-03-17T05:42:31.379Z,5.40
2023-03-17T05:44:58.492Z,6.68
2023-03-17T05:47:25.503Z,5.32
2023-03-17T05:49:52.642Z,5.47
2023-03-17T05:52:21.773Z,4.55
2023-03-17T05:54:49.122Z,5.03
2023-03-17T05:57:16.552Z,4.43
2023-03-17T05:59:43.294Z,7.53
2023-03-17T06:02:11.325Z,5.28
2023-03-17T06:04:38.731Z,4.10
2023-03-17T06:07:06.190Z,4.22
2023-03-17T06:09:33.905Z,4.95
2023-03-17T06:12:00.600Z,5.60
2023-03-17T06:14:27.710Z,6.20
2023-03-17T06:16:54.536Z,8.05
2023-03-17T06:19:21.367Z,5.90
2023-03-17T06:21:48.428Z,4.88
2023-03-17T06:24:15.543Z,4.78
2023-03-17T06:26:43.448Z,5.28
2023-03-17T06:29:11.694Z,3.83
2023-03-17T06:31:39.557Z,6.28
2023-03-17T06:34:06.974Z,6.72
2023-03-17T06:36:33.880Z,8.10
2023-03-17T06:39:01.047Z,5.32
2023-03-17T06:41:27.953Z,4.72
2023-03-17T06:43:54.705Z,5.70
2023-03-17T06:46:21.633Z,6.00
2023-03-17T06:48:48.434Z,5.43
2023-03-17T06:51:15.125Z,7.15
2023-03-17T06:53:42.102Z,4.80
2023-03-17T06:56:20.033Z,4.93
2023-03-17T06:58:54.493Z,6.32
2023-03-17T07:01:23.346Z,5.35
2023-03-17T07:03:50.115Z,4.63
2023-03-17T07:06:16.808Z,6.53
2023-03-17T07:08:43.555Z,6.18
2023-03-17T07:11:10.378Z,4.97
2023-03-17T07:13:38.727Z,4.05
2023-03-17T07:16:06.067Z,4.00
2023-03-17T07:18:33.734Z,3.95
2023-03-17T07:21:04.539Z,3.85
2023-03-17T07:23:31.373Z,6.40
2023-03-17T07:25:58.090Z,5.03
2023-03-17T07:28:24.799Z,6.05
2023-03-17T07:30:51.587Z,6.63
2023-03-17T07:33:22.562Z,6.90
2023-03-17T07:35:54.116Z,5.57
2023-03-17T07:38:21.859Z,4.78
2023-03-17T07:40:51.362Z,4.70
2023-03-17T07:43:18.210Z,4.03
2023-03-17T07:45:45.501Z,4.97
2023-03-17T07:48:12.523Z,4.55
2023-03-17T07:50:39.330Z,3.70
2023-03-17T07:53:06.104Z,3.83
2023-03-17T07:55:33.270Z,5.38
2023-03-17T07:58:00.466Z,4.60
2023-03-17T08:00:29.067Z,3.75
2023-03-17T08:03:08.773Z,6.28
2023-03-17T08:05:35.977Z,4.47
2023-03-17T08:08:02.775Z,4.60
2023-03-17T08:10:30.036Z,5.18
2023-03-17T08:12:57.073Z,3.70
2023-03-17T08:15:24.017Z,5.20
2023-03-17T08:17:50.723Z,6.18
2023-03-17T08:20:20.416Z,2.92
2023-03-17T08:22:47.169Z,4.53
2023-03-17T08:25:14.393Z,6.35
2023-03-17T08:27:41.962Z,3.47
2023-03-17T08:30:09.526Z,3.47
2023-03-17T08:32:36.904Z,4.97
2023-03-17T08:35:06.291Z,5.38
2023-03-17T08:37:33.206Z,4.63
2023-03-17T08:40:00.955Z,4.63
2023-03-17T08:42:27.629Z,3.65
2023-03-17T08:44:54.325Z,4.03
2023-03-17T08:47:21.681Z,4.60
2023-03-17T08:49:48.667Z,5.65
2023-03-17T08:52:16.204Z,4.63
2023-03-17T08:54:43.201Z,3.65
2023-03-17T08:57:10.011Z,4.15
2023-03-17T08:59:37.231Z,3.22
2023-03-17T09:02:04.013Z,5.57
2023-03-17T09:04:30.977Z,4.75
2023-03-17T09:07:05.768Z,4.57
2023-03-17T09:09:35.248Z,2.72
2023-03-17T09:12:04.296Z,3.33
2023-03-17T09:14:40.114Z,3.75
2023-03-17T09:17:11.102Z,3.60
2023-03-17T09:19:38.726Z,5.47
2023-03-17T09:22:05.815Z,3.75
2023-03-17T09:24:32.694Z,2.70
2023-03-17T09:27:01.293Z,4.72
2023-03-17T09:29:28.024Z,5.60
2023-03-17T09:31:56.506Z,5.50
2023-03-17T09:34:25.042Z,4.88
2023-03-17T09:36:53.894Z,5.13
2023-03-17T09:39:24.145Z,4.13
2023-03-17T09:42:35.240Z,3.80
2023-03-17T09:45:28.139Z,5.53
2023-03-17T09:50:27.919Z,5.03
2023-03-17T09:52:57.229Z,3.88
2023-03-17T09:55:29.984Z,4.80
2023-03-17T09:57:58.870Z,6.00
2023-03-17T10:00:29.114Z,6.43
2023-03-17T10:02:57.913Z,4.43
2023-03-17T10:05:31.160Z,6.20
2023-03-17T10:08:31.701Z,3.78
2023-03-17T10:11:31.292Z,4.30
2023-03-17T10:14:35.452Z,7.28
2023-03-17T10:17:15.377Z,3.67
2023-03-17T10:20:08.444Z,4.55
2023-03-17T10:22:41.118Z,4.63
2023-03-17T10:25:24.508Z,4.68
2023-03-17T10:28:31.659Z,8.50
2023-03-17T10:31:21.193Z,6.38
2023-03-17T10:33:52.332Z,8.15
2023-03-17T10:36:34.875Z,7.90
2023-03-17T10:39:05.305Z,4.63
2023-03-17T10:41:34.760Z,7.20
2023-03-17T10:44:01.858Z,4.18
2023-03-17T10:46:31.080Z,5.95
2023-03-17T10:49:06.129Z,5.88
2023-03-17T10:51:36.809Z,5.70
2023-03-17T10:54:10.904Z,18.02
2023-03-17T10:56:41.874Z,6.93
2023-03-17T10:59:33.009Z,8.63
2023-03-17T11:02:05.264Z,5.20
2023-03-17T11:04:39.635Z,6.77
2023-03-17T11:07:27.162Z,7.43
2023-03-17T11:10:01.076Z,4.57
2023-03-17T11:12:34.765Z,7.30
2023-03-17T11:15:05.905Z,8.00
2023-03-17T11:17:45.455Z,6.63
2023-03-17T11:20:46.289Z,6.45
2023-03-17T11:23:29.308Z,6.80
2023-03-17T11:26:10.354Z,6.68
2023-03-17T11:28:44.479Z,4.68
2023-03-17T11:31:18.767Z,9.35
2023-03-17T11:34:06.948Z,5.50
2023-03-17T11:36:59.690Z,4.57
2023-03-17T11:39:36.305Z,6.18
2023-03-17T11:42:19.451Z,8.90
2023-03-17T11:44:52.350Z,10.02
2023-03-17T11:47:38.067Z,5.70
2023-03-17T11:50:16.694Z,7.18
2023-03-17T11:53:10.947Z,5.95
2023-03-17T11:56:05.900Z,6.68
2023-03-17T11:58:44.282Z,5.13
2023-03-17T12:01:23.651Z,6.28
2023-03-17T12:04:08.225Z,5.38
2023-03-17T12:06:42.008Z,6.63
2023-03-17T12:09:21.145Z,6.60
2023-03-17T12:11:51.462Z,8.75
2023-03-17T12:14:19.022Z,7.53
2023-03-17T12:16:54.390Z,8.30
2023-03-17T12:19:29.717Z,5.93
2023-03-17T12:22:03.610Z,5.82
2023-03-17T12:24:38.545Z,4.95
2023-03-17T12:27:15.958Z,6.53
2023-03-17T12:30:03.431Z,7.55
2023-03-17T12:32:42.034Z,6.85
2023-03-17T12:35:49.198Z,7.30
2023-03-17T12:38:37.968Z,7.85
2023-03-17T12:41:26.450Z,6.78
2023-03-17T12:44:39.611Z,5.47
2023-03-17T12:47:30.441Z,6.15
2023-03-17T12:50:09.532Z,7.82
2023-03-17T12:52:49.500Z,8.77
2023-03-17T12:55:24.370Z,9.27
2023-03-17T12:58:22.303Z,6.00
2023-03-17T13:01:03.726Z,9.90
2023-03-17T13:03:34.247Z,6.78
2023-03-17T13:06:04.370Z,5.18
2023-03-17T13:08:33.131Z,8.05
2023-03-17T13:11:36.718Z,9.52
2023-03-17T13:14:27.007Z,6.72
2023-03-17T13:17:16.970Z,10.18
2023-03-17T13:20:12.451Z,8.40
2023-03-17T13:22:40.996Z,11.02
2023-03-17T13:25:35.131Z,10.73
2023-03-17T13:28:13.864Z,8.85
2023-03-17T13:30:41.023Z,5.70
2023-03-17T13:33:10.699Z,8.55
2023-03-17T13:35:46.126Z,8.95
2023-03-17T13:39:05.105Z,9.02
2023-03-17T13:42:15.666Z,6.88
2023-03-17T13:45:11.821Z,7.20
2023-03-17T13:47:43.692Z,6.57
2023-03-17T13:50:16.228Z,9.40
2023-03-17T13:52:50.018Z,7.60
2023-03-17T13:55:23.418Z,8.85
2023-03-17T13:58:17.712Z,6.80
2023-03-17T14:00:50.630Z,7.75
2023-03-17T14:03:29.294Z,7.68
2023-03-17T14:05:56.845Z,10.23
2023-03-17T14:08:37.755Z,10.77
2023-03-17T14:11:16.137Z,9.10
2023-03-17T14:13:56.044Z,7.47
2023-03-17T14:16:29.736Z,10.25
2023-03-17T14:19:18.210Z,8.15
2023-03-17T14:21:45.337Z,8.77
2023-03-17T14:24:22.732Z,6.93
2023-03-17T14:26:52.763Z,8.05
2023-03-17T14:29:25.208Z,8.15
2023-03-17T14:32:02.352Z,8.27
2023-03-17T14:34:29.148Z,6.82
2023-03-17T14:37:04.281Z,10.00
2023-03-17T14:39:31.133Z,8.13
2023-03-17T14:42:00.021Z,8.38
2023-03-17T14:44:26.748Z,9.30
2023-03-17T14:47:02.800Z,8.27
2023-03-17T14:49:31.689Z,9.35
2023-03-17T14:51:59.133Z,7.88
2023-03-17T14:54:34.069Z,9.73
2023-03-17T14:57:15.675Z,6.65
2023-03-17T14:59:44.215Z,7.90
2023-03-17T15:02:24.403Z,8.85
2023-03-17T15:05:01.404Z,7.85
2023-03-17T15:07:40.807Z,9.73
2023-03-17T15:10:19.199Z,8.80
2023-03-17T15:12:46.776Z,6.93
2023-03-17T15:15:31.816Z,8.25
2023-03-17T15:18:03.735Z,9.95
2023-03-17T15:20:33.861Z,7.80
2023-03-17T15:23:05.207Z,7.75
2023-03-17T15:25:37.561Z,7.35
2023-03-17T15:28:15.933Z,10.68
2023-03-17T15:30:47.637Z,8.05
2023-03-17T15:33:29.884Z,13.05
2023-03-17T15:36:00.037Z,9.47
2023-03-17T15:38:27.324Z,9.48
2023-03-17T15:40:54.319Z,7.93
2023-03-17T15:43:24.308Z,10.55
2023-03-17T15:46:24.937Z,8.85
2023-03-17T15:48:51.739Z,9.38
2023-03-17T15:51:18.962Z,7.43
2023-03-17T15:53:47.362Z,10.40
2023-03-17T15:56:21.104Z,8.48
2023-03-17T15:58:49.191Z,8.98
2023-03-17T16:01:16.879Z,9.93
2023-03-17T16:03:47.754Z,9.98
2023-03-17T16:06:21.540Z,7.13
2023-03-17T16:08:49.770Z,8.35
2023-03-17T16:15:38.713Z,7.88
2023-03-17T16:18:10.306Z,11.57
2023-03-17T16:20:46.204Z,9.45
2023-03-17T16:23:23.129Z,9.93
2023-03-17T16:25:51.656Z,8.10
2023-03-17T16:28:21.588Z,10.48
2023-03-17T16:30:49.978Z,8.60
2023-03-17T16:33:38.958Z,10.13
2023-03-17T16:36:06.027Z,6.75
2023-03-17T16:38:33.829Z,8.55
2023-03-17T16:41:14.748Z,7.18
2023-03-17T16:43:44.345Z,7.82
2023-03-17T16:46:12.388Z,7.53
2023-03-17T16:48:39.620Z,8.20
2023-03-17T16:51:06.614Z,9.82
2023-03-17T16:53:33.392Z,8.68
2023-03-17T16:56:00.324Z,10.02
2023-03-17T16:58:33.942Z,10.20
2023-03-17T17:01:11.293Z,8.30
2023-03-17T17:03:38.190Z,9.55
2023-03-17T17:06:06.950Z,6.88
2023-03-17T17:08:33.696Z,10.02
2023-03-17T17:11:00.490Z,8.60
2023-03-17T17:13:28.869Z,10.38
2023-03-17T17:15:56.202Z,11.35
2023-03-17T17:18:24.566Z,12.73
2023-03-17T17:20:53.080Z,11.30
2023-03-17T17:23:23.077Z,10.00
2023-03-17T17:25:50.425Z,13.15
2023-03-17T17:28:22.198Z,12.35
2023-03-17T17:30:50.686Z,13.18
2023-03-17T17:33:18.401Z,10.10
2023-03-17T17:35:45.417Z,12.82
2023-03-17T17:38:26.476Z,9.77
2023-03-17T17:40:57.721Z,10.50
2023-03-17T17:43:25.118Z,9.40
2023-03-17T17:45:52.337Z,9.65
2023-03-17T17:48:22.551Z,9.43
2023-03-17T17:50:50.680Z,9.55
2023-03-17T17:53:18.043Z,9.23
2023-03-17T17:55:47.112Z,12.02
2023-03-17T17:58:16.301Z,10.65
2023-03-17T18:00:43.393Z,15.00
2023-03-17T18:03:10.523Z,13.18
2023-03-17T18:05:37.375Z,13.23
2023-03-17T18:08:04.722Z,14.20
2023-03-17T18:10:31.940Z,14.45
2023-03-17T18:12:59.331Z,13.43
2023-03-17T18:15:27.404Z,9.98
2023-03-17T18:17:54.643Z,13.40
2023-03-17T18:20:23.015Z,11.70
2023-03-17T18:22:51.263Z,11.65
2023-03-17T18:25:19.380Z,10.07
2023-03-17T18:27:47.344Z,13.15
2023-03-17T18:30:24.136Z,13.48
2023-03-17T18:32:55.166Z,13.90
2023-03-17T18:35:24.294Z,15.23
2023-03-17T18:37:51.792Z,11.98
2023-03-17T18:40:19.678Z,11.25
2023-03-17T18:42:46.889Z,9.63
2023-03-17T18:45:14.020Z,10.57
2023-03-17T18:47:41.909Z,11.00
2023-03-17T18:50:11.369Z,9.98
2023-03-17T18:52:40.422Z,12.45
2023-03-17T18:55:08.890Z,10.77
2023-03-17T18:57:35.835Z,9.07
2023-03-17T19:00:02.721Z,11.00
2023-03-17T19:02:29.861Z,12.05
2023-03-17T19:04:56.893Z,14.77
2023-03-17T19:07:23.658Z,12.00
2023-03-17T19:09:50.890Z,14.13
2023-03-17T19:12:17.652Z,11.18
2023-03-17T19:14:44.546Z,12.25
2023-03-17T19:17:11.283Z,12.27
2023-03-17T19:19:38.526Z,10.10
2023-03-17T19:22:06.200Z,11.82
2023-03-17T19:24:35.330Z,10.10
2023-03-17T19:27:02.032Z,11.00
2023-03-17T19:29:28.818Z,11.80
2023-03-17T19:31:55.682Z,13.02
2023-03-17T19:34:23.284Z,11.75
2023-03-17T19:36:50.541Z,11.13
2023-03-17T19:39:17.605Z,7.60
2023-03-17T19:41:44.716Z,10.65
2023-03-17T19:44:14.622Z,10.18
2023-03-17T19:46:41.317Z,11.65
2023-03-17T19:49:08.204Z,10.80
2023-03-17T19:51:34.969Z,9.98
2023-03-17T19:54:01.800Z,9.57
2023-03-17T19:56:28.682Z,13.23
2023-03-17T19:58:55.515Z,10.23
2023-03-17T20:01:22.966Z,8.18
2023-03-17T20:03:49.779Z,10.15
2023-03-17T20:06:16.835Z,11.82
2023-03-17T20:08:44.564Z,9.43
2023-03-17T20:11:13.107Z,8.45
2023-03-17T20:13:40.899Z,12.23
2023-03-17T20:16:08.546Z,10.80
2023-03-17T20:18:36.053Z,8.77
2023-03-17T20:21:05.607Z,10.38
2023-03-17T20:23:33.332Z,9.88
2023-03-17T20:26:01.235Z,8.90
2023-03-17T20:28:29.988Z,10.57
2023-03-17T20:31:01.089Z,10.52
2023-03-17T20:33:27.883Z,11.30
2023-03-17T20:35:54.681Z,9.45
2023-03-17T20:38:21.489Z,10.38
2023-03-17T20:40:48.420Z,14.15
2023-03-17T20:43:16.067Z,12.60
2023-03-17T20:45:42.944Z,10.98
2023-03-17T20:48:11.245Z,8.57
2023-03-17T20:50:39.300Z,10.57
2023-03-17T20:53:06.226Z,9.50
2023-03-17T20:55:33.202Z,10.13
2023-03-17T20:58:01.731Z,6.28
2023-03-17T21:00:30.165Z,8.80
2023-03-17T21:02:57.510Z,8.88
2023-03-17T21:05:26.330Z,8.13
2023-03-17T21:07:53.499Z,6.82
2023-03-17T21:10:21.033Z,8.32
2023-03-17T21:12:47.818Z,9.15
2023-03-17T21:15:15.119Z,9.68
2023-03-17T21:17:42.501Z,11.93
2023-03-17T21:20:12.215Z,8.68
2023-03-17T21:22:40.107Z,7.57
2023-03-17T21:25:08.910Z,8.38
2023-03-17T21:27:39.686Z,11.10
2023-03-17T21:30:09.775Z,8.45
2023-03-17T21:32:36.625Z,10.25
2023-03-17T21:35:03.740Z,8.07
2023-03-17T21:37:30.686Z,8.02
2023-03-17T21:39:58.008Z,6.53
2023-03-17T21:42:25.281Z,7.53
2023-03-17T21:44:52.283Z,6.88
2023-03-17T21:47:19.679Z,7.22
2023-03-17T21:49:46.819Z,5.22
2023-03-17T21:52:14.958Z,7.10
2023-03-17T21:54:41.969Z,7.30
2023-03-17T21:57:09.305Z,8.38
2023-03-17T21:59:36.194Z,7.40
2023-03-17T22:02:03.542Z,7.88
2023-03-17T22:04:30.325Z,5.97
2023-03-17T22:06:58.855Z,6.32
2023-03-17T22:09:26.319Z,6.00
2023-03-17T22:11:53.093Z,5.70
2023-03-17T22:14:20.661Z,9.50
2023-03-17T22:16:49.205Z,3.78
2023-03-17T22:19:17.808Z,6.25
2023-03-17T22:21:46.064Z,3.85
2023-03-17T22:24:12.891Z,4.57
2023-03-17T22:26:39.716Z,3.53
2023-03-17T22:29:06.498Z,6.50
2023-03-17T22:31:34.695Z,7.32
2023-03-17T22:34:02.205Z,4.45
2023-03-17T22:36:30.014Z,4.43
2023-03-17T22:38:58.377Z,6.85
2023-03-17T22:41:27.643Z,6.13
2023-03-17T22:43:54.520Z,5.85
2023-03-17T22:46:22.059Z,4.38
2023-03-17T22:48:49.925Z,5.00
2023-03-17T22:51:20.036Z,3.88
2023-03-17T22:53:47.601Z,5.18
2023-03-17T22:56:17.487Z,3.78
2023-03-17T22:58:45.101Z,6.10
2023-03-17T23:01:13.421Z,6.10
2023-03-17T23:03:40.530Z,6.03
2023-03-17T23:06:08.609Z,6.03
2023-03-17T23:08:39.673Z,7.05
2023-03-17T23:11:10.609Z,6.63
2023-03-17T23:13:38.185Z,5.25
2023-03-17T23:16:06.467Z,4.38
2023-03-17T23:18:33.939Z,5.72
2023-03-17T23:21:01.819Z,6.60
2023-03-17T23:23:28.950Z,7.32
2023-03-17T23:25:56.197Z,4.88
2023-03-17T23:28:23.325Z,8.10
2023-03-17T23:30:51.927Z,5.65
2023-03-17T23:33:21.501Z,5.10
2023-03-17T23:35:50.262Z,4.35
2023-03-17T23:38:21.965Z,8.65
2023-03-17T23:40:49.682Z,5.23
2023-03-17T23:43:16.657Z,7.25
2023-03-17T23:45:43.615Z,7.57
2023-03-17T23:48:11.212Z,6.10
2023-03-17T23:50:39.619Z,6.60
2023-03-17T23:53:06.377Z,7.85
2023-03-17T23:55:33.266Z,6.25
2023-03-17T23:58:01.225Z,4.43
